sensor_id;sensor_type;location;lat;lon;timestamp;temperature;humidity
24176;DHT22;12324;48.146;11.502;2024-03-22T00:14:08;6.40;99.90
24176;DHT22;12324;48.146;11.502;2024-03-22T00:16:35;6.10;99.90
24176;DHT22;12324;48.146;11.502;2024-03-22T00:19:01;6.10;99.90
24176;DHT22;12324;48.146;11.502;2024-03-22T00:21:27;6.00;99.90
24176;DHT22;12324;48.146;11.502;2024-03-22T00:23:55;6.00;99.90
24176;DHT22;12324;48.146;11.502;2024-03-22T00:26:21;6.10;99.90
24176;DHT22;12324;48.146;11.502;2024-03-22T00:28:47;6.10;99.90
24176;DHT22;12324;48.146;11.502;2024-03-22T00:31:13;6.10;99.90
24176;DHT22;12324;48.146;11.502;2024-03-22T00:33:39;6.10;99.90
24176;DHT22;12324;48.146;11.502;2024-03-22T00:36:05;6.10;99.90
24176;DHT22;12324;48.146;11.502;2024-03-22T00:38:32;6.20;99.90
24176;DHT22;12324;48.146;11.502;2024-03-22T00:40:58;6.20;99.90
24176;DHT22;12324;48.146;11.502;2024-03-22T00:43:24;6.20;99.90
24176;DHT22;12324;48.146;11.502;2024-03-22T00:45:50;6.30;99.90
24176;DHT22;12324;48.146;11.502;2024-03-22T00:48:16;6.20;99.90
24176;DHT22;12324;48.146;11.502;2024-03-22T00:50:42;6.20;99.90
24176;DHT22;12324;48.146;11.502;2024-03-22T00:53:08;6.20;99.90
24176;DHT22;12324;48.146;11.502;2024-03-22T00:55:35;6.20;99.90
24176;DHT22;12324;48.146;11.502;2024-03-22T00:58:01;6.20;99.90
24176;DHT22;12324;48.146;11.502;2024-03-22T01:00:27;6.30;99.90
24176;DHT22;12324;48.146;11.502;2024-03-22T01:02:53;6.30;99.90
24176;DHT22;12324;48.146;11.502;2024-03-22T01:05:19;6.20;99.90
24176;DHT22;12324;48.146;11.502;2024-03-22T01:07:45;6.20;99.90
24176;DHT22;12324;48.146;11.502;2024-03-22T01:10:11;6.30;99.90
24176;DHT22;12324;48.146;11.502;2024-03-22T01:12:38;6.20;99.90
24176;DHT22;12324;48.146;11.502;2024-03-22T01:15:06;6.20;99.90
24176;DHT22;12324;48.146;11.502;2024-03-22T01:17:32;6.20;99.90
24176;DHT22;12324;48.146;11.502;2024-03-22T01:19:58;6.20;99.90
24176;DHT22;12324;48.146;11.502;2024-03-22T01:22:24;6.20;99.90
24176;DHT22;12324;48.146;11.502;2024-03-22T01:24:50;6.20;99.90
24176;DHT22;12324;48.146;11.502;2024-03-22T01:27:16;6.20;99.90
24176;DHT22;12324;48.146;11.502;2024-03-22T01:29:42;6.20;99.90
24176;DHT22;12324;48.146;11.502;2024-03-22T02:16:12;6.20;99.90
24176;DHT22;12324;48.146;11.502;2024-03-22T02:18:38;5.90;99.90
24176;DHT22;12324;48.146;11.502;2024-03-22T02:21:04;5.80;99.90
24176;DHT22;12324;48.146;11.502;2024-03-22T02:23:35;5.80;99.90
24176;DHT22;12324;48.146;11.502;2024-03-22T02:26:01;5.70;99.90
24176;DHT22;12324;48.146;11.502;2024-03-22T02:28:28;5.70;99.90
24176;DHT22;12324;48.146;11.502;2024-03-22T02:30:54;5.60;99.90
24176;DHT22;12324;48.146;11.502;2024-03-22T05:17:21;5.60;99.90
24176;DHT22;12324;48.146;11.502;2024-03-22T05:19:47;6.10;99.90
24176;DHT22;12324;48.146;11.502;2024-03-22T05:22:13;6.10;99.90
24176;DHT22;12324;48.146;11.502;2024-03-22T05:24:39;6.20;99.90
24176;DHT22;12324;48.146;11.502;2024-03-22T05:27:05;6.20;99.90
24176;DHT22;12324;48.146;11.502;2024-03-22T05:29:31;6.30;99.90
24176;DHT22;12324;48.146;11.502;2024-03-22T05:31:57;6.30;99.90
24176;DHT22;12324;48.146;11.502;2024-03-22T05:34:23;6.30;99.90
24176;DHT22;12324;48.146;11.502;2024-03-22T06:52:29;6.40;99.90
24176;DHT22;12324;48.146;11.502;2024-03-22T06:54:55;7.40;99.90
24176;DHT22;12324;48.146;11.502;2024-03-22T07:02:13;7.40;99.90
24176;DHT22;12324;48.146;11.502;2024-03-22T07:04:40;7.90;99.90
24176;DHT22;12324;48.146;11.502;2024-03-22T07:07:06;7.90;99.90
24176;DHT22;12324;48.146;11.502;2024-03-22T07:09:35;8.00;99.90
24176;DHT22;12324;48.146;11.502;2024-03-22T07:12:01;8.10;99.90
24176;DHT22;12324;48.146;11.502;2024-03-22T08:57:02;9.00;99.90
24176;DHT22;12324;48.146;11.502;2024-03-22T08:59:28;13.30;99.90
24176;DHT22;12324;48.146;11.502;2024-03-22T11:24:06;15.00;99.90
24176;DHT22;12324;48.146;11.502;2024-03-22T11:26:33;16.60;99.90
24176;DHT22;12324;48.146;11.502;2024-03-22T11:28:59;16.40;99.90
24176;DHT22;12324;48.146;11.502;2024-03-22T12:40:15;16.50;99.90
24176;DHT22;12324;48.146;11.502;2024-03-22T12:42:41;17.70;99.90
24176;DHT22;12324;48.146;11.502;2024-03-22T12:45:07;17.50;99.90
24176;DHT22;12324;48.146;11.502;2024-03-22T12:47:33;17.70;99.90
24176;DHT22;12324;48.146;11.502;2024-03-22T12:49:59;17.90;99.90
24176;DHT22;12324;48.146;11.502;2024-03-22T13:02:12;17.70;99.90
24176;DHT22;12324;48.146;11.502;2024-03-22T13:04:38;17.40;99.90
24176;DHT22;12324;48.146;11.502;2024-03-22T13:07:04;17.90;99.90
24176;DHT22;12324;48.146;11.502;2024-03-22T13:09:30;18.00;99.90
24176;DHT22;12324;48.146;11.502;2024-03-22T13:11:55;18.00;99.90
24176;DHT22;12324;48.146;11.502;2024-03-22T13:48:43;18.00;99.90
24176;DHT22;12324;48.146;11.502;2024-03-22T14:10:42;19.70;99.90
24176;DHT22;12324;48.146;11.502;2024-03-22T16:03:16;21.60;76.50
24176;DHT22;12324;48.146;11.502;2024-03-22T16:05:49;19.10;38.40
24176;DHT22;12324;48.146;11.502;2024-03-22T16:08:17;18.80;39.40
24176;DHT22;12324;48.146;11.502;2024-03-22T16:10:47;19.00;39.80
24176;DHT22;12324;48.146;11.502;2024-03-22T16:13:13;19.40;39.70
24176;DHT22;12324;48.146;11.502;2024-03-22T16:27:59;19.90;38.70
24176;DHT22;12324;48.146;11.502;2024-03-22T16:40:11;20.40;37.70
24176;DHT22;12324;48.146;11.502;2024-03-22T16:42:48;20.00;36.60
24176;DHT22;12324;48.146;11.502;2024-03-22T16:45:14;19.70;38.00
24176;DHT22;12324;48.146;11.502;2024-03-22T16:47:40;19.20;39.00
24176;DHT22;12324;48.146;11.502;2024-03-22T16:50:07;18.80;40.10
24176;DHT22;12324;48.146;11.502;2024-03-22T16:52:36;18.30;41.30
24176;DHT22;12324;48.146;11.502;2024-03-22T16:57:29;17.80;42.00
24176;DHT22;12324;48.146;11.502;2024-03-22T16:59:55;17.60;43.10
24176;DHT22;12324;48.146;11.502;2024-03-22T17:02:21;17.20;44.10
24176;DHT22;12324;48.146;11.502;2024-03-22T17:04:47;17.00;45.40
24176;DHT22;12324;48.146;11.502;2024-03-22T17:19:26;17.00;46.50
24176;DHT22;12324;48.146;11.502;2024-03-22T17:21:52;16.40;49.30
24176;DHT22;12324;48.146;11.502;2024-03-22T17:24:18;16.30;49.50
24176;DHT22;12324;48.146;11.502;2024-03-22T18:08:21;16.20;52.20
24176;DHT22;12324;48.146;11.502;2024-03-22T18:10:47;14.30;70.10
24176;DHT22;12324;48.146;11.502;2024-03-22T18:15:39;14.20;71.30
24176;DHT22;12324;48.146;11.502;2024-03-22T18:30:17;13.90;73.50
24176;DHT22;12324;48.146;11.502;2024-03-22T18:32:43;13.40;80.90
24176;DHT22;12324;48.146;11.502;2024-03-22T18:35:09;13.40;83.50
24176;DHT22;12324;48.146;11.502;2024-03-22T18:37:34;13.40;82.90
24176;DHT22;12324;48.146;11.502;2024-03-22T18:40:02;13.30;81.50
24176;DHT22;12324;48.146;11.502;2024-03-22T18:42:28;13.30;82.80
